首页
METAR-TAF:

METAR-TAF

机场 :

Spangdahlem, 德国

纬度: 49-59N, 经度: 006-42E, 海拔: 365米

当前天气观测

该预报发布于9分钟前的04:56 UTC
风速4节,风向西
温度 -1°C
湿度 100%
气压 1031 hPa
能见度10公里或以上
多云层高于4200英尺

METAR: ETAD 190456Z AUTO 28004KT 9999 BKN042 M01/M01 A3046 RMK AO2 SLP326 T10081014 $

时间: 06:05 (05:05 UTC)

预报

该预报发布于17小时和25分钟前的11:40 UTC
预报有效从18日的 11点(UTC)到 19日的 16点(UTC)
风速10节,风向西转西南,有时为15节阵风
能见度10公里或以上
多云层高于1000英尺
阴天层高于2000英尺
小阵雨
成为
从 18日的 14点(UTC)到 18日的 15点(UTC)
风速6节,风向西
能见度10公里或以上
散云层高于2000英尺
多云层高于4000英尺
成为
从 19日的 09点(UTC)到 19日的 10点(UTC)
风速6节,风向多变
能見度: 2105
多云层高于1500英尺
阴天层高于4000英尺

TAF: ETAD 181140Z 1811/1916 24010G15KT 9999 -SHRA BKN010 OVC020 QNH3027INS BECMG 1814/1815 28006KT 9999 NSW SCT020 BKN040 QNH3030INS BECMG 1909/1910 VRB06KT 9999 BKN015 OVC040 620155 QNH3053INS TX04/1813Z TNM01/1905Z LAST NO AMDS AFT 1812 NEXT 2105

超过4000个机场的气象观测和天气预报(METAR&TAF报告)。

可查询的气象台以黄色和红色小点在地图上表示。

将鼠标移到小点上方,可查看气象台名称。

然后点击查看天气观测和预报。

如需切换地图:点击带黑十字的绿色按钮放大地图;点击带横线的绿色按钮缩小地图;或者点击绿色箭头查看邻近地区的地图。


METAR-TAF: